Time;durP1;ratioP1;P1;durP2;ratioP2;P2;SDS_P1;SDS_P2;PMS_P1;PMS_P2;Temp;Humidity;BMP_temperature;BMP_pressure;BME280_temperature;BME280_humidity;BME280_pressure;Samples;Min_cycle;Max_cycle;Signal;HPM_P1;HPM_P2
2022/05/17 00:00:58;;;;;;;22.67;6.38;;;;;;;12.16;92.63;100624.97;6229021;23;20125;-75
2022/05/17 00:03:24;;;;;;;22.30;6.28;;;;;;;12.21;93.33;100633.22;6254142;23;20010;-76
2022/05/17 00:05:52;;;;;;;29.17;7.03;;;;;;;12.21;92.84;100633.22;6200595;23;20091;-75
2022/05/17 00:08:20;;;;;;;24.98;7.32;;;;;;;12.30;93.18;100645.31;6204662;23;20019;-74
2022/05/17 00:10:46;;;;;;;24.20;7.13;;;;;;;12.17;93.30;100621.16;6227306;23;20087;-76
2022/05/17 00:13:12;;;;;;;18.70;6.13;;;;;;;12.19;92.97;100635.41;6254950;23;20000;-76
2022/05/17 00:15:42;;;;;;;16.33;5.32;;;;;;;12.19;93.13;100630.75;6226655;23;20099;-77
2022/05/17 00:18:16;;;;;;;24.85;6.53;;;;;;;12.19;93.61;100629.91;6254929;23;20004;-76
2022/05/17 00:20:43;;;;;;;32.90;7.90;;;;;;;12.23;93.28;100642.00;6252339;23;20077;-76
2022/05/17 00:23:11;;;;;;;22.08;6.50;;;;;;;12.16;93.27;100630.47;6252540;23;20007;-75
2022/05/17 00:25:36;;;;;;;18.27;4.15;;;;;;;12.08;93.45;100617.31;6227322;23;20697;-75
2022/05/17 00:28:02;;;;;;;21.95;5.57;;;;;;;12.03;93.22;100624.44;6199819;23;20032;-76
2022/05/17 00:30:28;;;;;;;13.80;4.00;;;;;;;11.87;94.07;100606.25;6228063;23;20328;-75
2022/05/17 00:32:53;;;;;;;20.02;4.85;;;;;;;11.88;94.22;100618.88;6253718;23;20040;-75
2022/05/17 00:35:19;;;;;;;11.98;4.05;;;;;;;12.11;94.49;100633.22;6176221;23;20012;-75
2022/05/17 00:37:44;;;;;;;17.80;4.85;;;;;;;12.18;93.78;100623.63;6251725;23;20407;-76
2022/05/17 00:40:14;;;;;;;21.05;4.97;;;;;;;12.25;93.50;100623.38;6227291;23;20012;-76
2022/05/17 00:42:39;;;;;;;15.68;4.93;;;;;;;12.21;92.39;100614.03;6224359;23;20443;-75
2022/05/17 00:45:08;;;;;;;22.23;5.25;;;;;;;12.29;92.46;100632.69;6227905;23;20004;-75
2022/05/17 00:47:42;;;;;;;21.75;4.93;;;;;;;12.25;92.78;100631.59;6228063;23;20011;-76
2022/05/17 00:50:32;;;;;;;15.93;4.35;;;;;;;12.21;92.69;100616.78;6254756;23;20035;-74
2022/05/17 00:53:00;;;;;;;16.15;4.53;;;;;;;12.19;93.11;100625.28;6251044;23;19996;-75
2022/05/17 00:55:53;;;;;;;15.82;4.40;;;;;;;12.12;93.30;100618.41;6228314;22;20027;-75
2022/05/17 00:58:44;;;;;;;20.15;4.07;;;;;;;12.09;93.87;100618.94;6227479;23;20008;-76
2022/05/17 01:01:14;;;;;;;18.33;4.65;;;;;;;12.02;93.44;100614.56;6209471;23;20020;-76
2022/05/17 01:04:00;;;;;;;16.10;4.18;;;;;;;12.03;94.07;100610.72;6253518;23;20006;-75
2022/05/17 01:06:30;;;;;;;6.95;2.80;;;;;;;12.09;94.05;100613.47;6227294;23;20772;-76
2022/05/17 01:09:07;;;;;;;10.00;2.63;;;;;;;12.13;94.36;100615.38;6225719;23;20004;-78
2022/05/17 01:11:33;;;;;;;6.20;1.73;;;;;;;12.14;93.62;100599.78;6224333;23;20619;-74
2022/05/17 01:16:45;;;;;;;13.07;3.53;;;;;;;12.41;92.51;100610.47;6234383;23;20066;-77
2022/05/17 01:19:15;;;;;;;16.10;3.97;;;;;;;12.50;92.00;100613.50;6180878;23;20008;-78
2022/05/17 01:21:44;;;;;;;11.43;3.45;;;;;;;12.49;92.28;100606.38;6204655;23;20011;-75
2022/05/17 01:24:55;;;;;;;9.40;2.80;;;;;;;12.39;91.90;100577.03;6201989;23;20008;-74
2022/05/17 01:27:56;;;;;;;15.52;3.95;;;;;;;12.57;91.43;100605.81;6224992;23;20409;-72
2022/05/17 01:30:25;;;;;;;16.33;4.20;;;;;;;12.61;90.90;100615.13;6228310;23;20327;-72
2022/05/17 01:32:50;;;;;;;11.52;3.25;;;;;;;12.58;91.03;100599.22;6224416;23;20439;-73
2022/05/17 01:35:16;;;;;;;13.55;3.60;;;;;;;12.62;91.22;100605.81;6254142;23;20000;-72
2022/05/17 01:37:42;;;;;;;8.85;3.33;;;;;;;12.61;91.33;100593.19;6226918;23;20008;-75
2022/05/17 01:40:10;;;;;;;8.25;2.47;;;;;;;12.67;91.53;100594.81;6203971;23;20076;-76
2022/05/17 01:42:36;;;;;;;10.80;2.80;;;;;;;12.68;91.36;100593.75;6229738;23;20024;-75
2022/05/17 01:45:03;;;;;;;12.57;2.63;;;;;;;12.67;90.84;100578.38;6253834;23;20004;-76
2022/05/17 01:47:31;;;;;;;11.13;2.85;;;;;;;12.61;90.61;100581.41;6205786;23;20000;-75
2022/05/17 01:49:57;;;;;;;6.50;2.30;;;;;;;12.52;90.77;100589.38;6207262;23;20019;-74
2022/05/17 01:52:22;;;;;;;8.63;2.22;;;;;;;12.27;91.06;100571.00;6179376;23;20012;-75
2022/05/17 01:54:48;;;;;;;11.50;2.33;;;;;;;12.18;91.88;100573.47;6226096;23;20096;-74
2022/05/17 01:57:13;;;;;;;5.07;1.85;;;;;;;12.16;92.07;100575.63;6203055;23;20338;-75
2022/05/17 01:59:40;;;;;;;9.73;2.63;;;;;;;12.09;92.62;100575.09;6203084;23;20450;-74
2022/05/17 02:02:05;;;;;;;10.07;2.38;;;;;;;12.04;92.94;100573.97;6228039;23;20015;-75
2022/05/17 02:04:32;;;;;;;5.18;2.05;;;;;;;12.02;93.03;100569.88;6226069;23;20381;-74
2022/05/17 02:06:57;;;;;;;5.72;2.15;;;;;;;12.05;92.38;100574.81;6201468;23;20012;-73
2022/05/17 02:09:23;;;;;;;8.15;2.35;;;;;;;11.93;93.05;100555.91;6225941;23;20062;-74
2022/05/17 02:11:48;;;;;;;5.13;2.20;;;;;;;11.96;92.78;100566.31;6228210;23;20112;-75
2022/05/17 02:14:14;;;;;;;7.75;2.30;;;;;;;11.84;92.98;100557.47;6203087;23;20306;-73
2022/05/17 02:16:40;;;;;;;6.45;1.88;;;;;;;11.76;93.70;100566.25;6176920;23;20015;-74
2022/05/17 02:19:09;;;;;;;5.65;2.08;;;;;;;11.70;93.67;100560.75;6226860;23;20010;-74
2022/05/17 02:21:36;;;;;;;12.35;2.22;;;;;;;11.62;94.03;100561.28;6227779;23;20000;-75
2022/05/17 02:24:05;;;;;;;8.90;2.50;;;;;;;11.62;93.76;100568.66;6227462;23;20059;-73
2022/05/17 02:26:31;;;;;;;10.85;2.80;;;;;;;11.62;94.72;100572.25;6227650;23;20040;-74
2022/05/17 02:28:57;;;;;;;14.52;3.28;;;;;;;11.64;94.80;100570.03;6203803;23;20349;-74
2022/05/17 02:31:23;;;;;;;11.93;3.17;;;;;;;11.58;94.98;100560.16;6254390;23;20036;-74
2022/05/17 02:33:48;;;;;;;10.27;3.10;;;;;;;11.54;94.58;100570.00;6254602;23;20008;-74
2022/05/17 02:36:14;;;;;;;11.88;3.05;;;;;;;11.49;94.87;100576.31;6228633;23;20008;-74
2022/05/17 02:38:40;;;;;;;8.85;2.90;;;;;;;11.46;95.16;100562.31;6226022;23;20003;-75
2022/05/17 02:41:07;;;;;;;8.50;3.03;;;;;;;11.43;95.40;100557.38;6226467;23;20433;-73
2022/05/17 02:43:33;;;;;;;9.93;2.78;;;;;;;11.47;95.37;100570.25;6200844;23;20035;-74
2022/05/17 02:45:58;;;;;;;10.23;2.95;;;;;;;11.50;95.28;100563.41;6225554;23;20459;-74
2022/05/17 02:48:24;;;;;;;6.72;2.78;;;;;;;11.50;95.37;100569.72;6226903;23;20012;-75
2022/05/17 02:50:49;;;;;;;10.90;3.45;;;;;;;11.62;95.03;100583.19;6203613;23;20004;-75
2022/05/17 02:53:15;;;;;;;14.98;3.38;;;;;;;11.53;95.25;100568.34;6202759;22;20043;-75
2022/05/17 02:55:40;;;;;;;9.23;3.38;;;;;;;11.55;95.92;100566.19;6255023;23;20004;-75
2022/05/17 02:58:06;;;;;;;6.72;2.70;;;;;;;11.61;95.50;100570.59;6177949;23;20004;-75
2022/05/17 03:00:33;;;;;;;5.32;2.17;;;;;;;11.54;95.70;100564.53;6227245;23;20064;-75
2022/05/17 03:02:59;;;;;;;8.70;2.60;;;;;;;11.62;95.92;100577.72;6223438;23;20027;-74
2022/05/17 03:05:28;;;;;;;4.75;1.98;;;;;;;11.55;95.13;100559.88;6201436;23;20012;-75
2022/05/17 03:07:53;;;;;;;4.55;1.95;;;;;;;11.63;95.11;100567.56;6223103;23;20004;-75
2022/05/17 03:10:19;;;;;;;4.68;2.05;;;;;;;11.68;95.33;100557.47;6201311;23;20014;-74
2022/05/17 03:12:44;;;;;;;7.90;2.50;;;;;;;11.76;94.72;100572.53;6229767;23;20011;-76
2022/05/17 03:15:16;;;;;;;3.00;1.80;;;;;;;11.70;94.92;100552.53;6227783;23;20027;-75
2022/05/17 03:17:41;;;;;;;4.05;2.05;;;;;;;11.78;94.67;100567.59;6228892;23;20015;-75
2022/05/17 03:20:07;;;;;;;2.30;1.30;;;;;;;11.72;94.83;100563.22;6203588;23;20008;-75
2022/05/17 03:22:33;;;;;;;1.10;1.00;;;;;;;11.78;94.38;100578.56;6228393;23;20006;-75
2022/05/17 03:24:58;;;;;;;3.05;1.20;;;;;;;11.77;94.49;100576.94;6256338;23;20011;-76
2022/05/17 03:27:24;;;;;;;2.63;1.10;;;;;;;11.78;94.51;100572.25;6254448;23;20316;-74
2022/05/17 03:29:49;;;;;;;3.00;1.90;;;;;;;11.73;94.59;100570.34;6227843;23;20015;-75
2022/05/17 03:32:15;;;;;;;4.05;1.38;;;;;;;11.77;94.76;100563.22;6253857;23;20008;-75
2022/05/17 03:34:41;;;;;;;2.90;1.52;;;;;;;11.74;94.38;100551.97;6254537;23;20085;-75
2022/05/17 03:37:07;;;;;;;5.70;1.92;;;;;;;11.82;94.32;100570.63;6228927;23;20004;-76
2022/05/17 03:39:35;;;;;;;7.88;2.22;;;;;;;11.79;94.24;100563.78;6228422;23;20412;-74
2022/05/17 03:42:01;;;;;;;6.28;1.75;;;;;;;11.78;94.01;100569.53;6228590;23;20529;-73
2022/05/17 03:44:26;;;;;;;7.25;2.13;;;;;;;11.72;94.32;100556.91;6226283;23;20008;-75
2022/05/17 03:46:54;;;;;;;8.80;2.35;;;;;;;11.66;94.92;100545.94;6204841;23;20015;-75
2022/05/17 03:49:20;;;;;;;6.15;2.15;;;;;;;11.73;94.99;100561.31;6227274;23;20180;-75
2022/05/17 03:51:48;;;;;;;9.30;2.13;;;;;;;11.63;94.98;100554.69;6229135;23;20477;-75
2022/05/17 03:54:19;;;;;;;5.10;1.83;;;;;;;11.65;95.14;100566.22;6229004;22;20059;-75
2022/05/17 03:56:47;;;;;;;7.40;2.22;;;;;;;11.51;95.04;100543.97;6256334;23;20015;-75
2022/05/17 03:59:12;;;;;;;6.50;2.25;;;;;;;11.57;95.66;100558.50;6204753;23;20012;-75
2022/05/17 04:01:38;;;;;;;13.65;2.15;;;;;;;11.53;95.52;100546.44;6205438;23;20087;-73
2022/05/17 04:04:04;;;;;;;9.93;2.63;;;;;;;11.52;95.52;100550.28;6228593;23;20007;-73
2022/05/17 04:06:29;;;;;;;13.63;2.83;;;;;;;11.47;95.87;100547.53;6201975;23;20015;-75
2022/05/17 04:08:55;;;;;;;5.72;2.00;;;;;;;11.53;96.26;100557.41;6204284;23;20082;-76
2022/05/17 04:11:21;;;;;;;7.78;2.33;;;;;;;11.47;95.65;100553.00;6179909;23;20008;-75
2022/05/17 04:13:46;;;;;;;8.07;2.60;;;;;;;11.54;96.62;100575.50;6204903;23;20283;-75
2022/05/17 04:16:24;;;;;;;14.07;2.92;;;;;;;11.49;96.06;100567.25;6204081;23;20015;-74
2022/05/17 04:19:12;;;;;;;8.38;3.05;;;;;;;11.49;96.33;100573.56;6229293;23;20011;-74
2022/05/17 04:22:13;;;;;;;;;;;;;;;;;;;;;
2022/05/17 04:24:50;;;;;;;7.25;2.92;;;;;;;11.18;96.99;100534.28;6249663;23;20443;-75
2022/05/17 04:27:49;;;;;;;7.88;3.13;;;;;;;11.31;97.09;100561.16;6227799;23;20011;-74
2022/05/17 04:30:51;;;;;;;6.32;2.78;;;;;;;11.14;97.85;100541.38;6233065;23;20016;-74
2022/05/17 04:33:17;;;;;;;8.55;3.15;;;;;;;11.31;97.76;100569.38;6230070;23;20023;-75
2022/05/17 04:35:43;;;;;;;9.80;3.53;;;;;;;11.30;98.58;100570.47;6257574;23;20000;-76
2022/05/17 04:38:11;;;;;;;7.50;2.92;;;;;;;11.31;98.56;100574.84;6204417;23;20047;-76
2022/05/17 04:40:41;;;;;;;14.38;3.80;;;;;;;11.26;98.84;100552.94;6228979;23;20054;-75
2022/05/17 04:43:08;;;;;;;5.45;3.13;;;;;;;11.33;98.70;100561.72;6228561;23;20116;-76
2022/05/17 04:45:34;;;;;;;10.07;4.25;;;;;;;11.32;98.81;100554.59;6229006;23;20086;-75
2022/05/17 04:48:00;;;;;;;11.27;3.97;;;;;;;11.49;98.67;100584.50;6230341;23;20011;-74
2022/05/17 04:50:26;;;;;;;9.00;3.33;;;;;;;11.52;98.95;100589.44;6256099;23;20004;-76
2022/05/17 04:52:52;;;;;;;11.00;4.85;;;;;;;11.54;98.27;100591.91;6230681;23;20011;-76
2022/05/17 04:55:19;;;;;;;6.82;3.75;;;;;;;11.63;98.81;100593.03;6230675;22;20020;-76
2022/05/17 04:57:50;;;;;;;9.63;4.05;;;;;;;11.63;98.32;100587.56;6257128;23;20032;-77
2022/05/17 05:00:27;;;;;;;8.15;3.45;;;;;;;11.68;98.60;100590.34;6204667;23;20016;-75
2022/05/17 05:02:55;;;;;;;7.60;3.70;;;;;;;11.81;98.19;100608.19;6228289;23;20042;-76
2022/05/17 05:05:23;;;;;;;13.95;5.20;;;;;;;11.83;97.83;100603.25;6256666;23;20004;-75
2022/05/17 05:07:48;;;;;;;7.97;3.42;;;;;;;11.74;97.68;100576.63;6227846;23;20024;-74
2022/05/17 05:10:14;;;;;;;8.45;4.47;;;;;;;11.94;97.94;100590.41;6228894;23;20011;-73
2022/05/17 05:12:49;;;;;;;7.47;4.40;;;;;;;12.01;97.84;100596.44;6203803;23;20055;-72
2022/05/17 05:15:26;;;;;;;;;;;;;;;;;;;;;
2022/05/17 05:17:55;;;;;;;6.10;3.80;;;;;;;12.11;97.11;100592.91;6253471;23;20761;-73
2022/05/17 05:20:30;;;;;;;6.18;3.70;;;;;;;12.30;97.23;100604.16;6228821;23;20724;-74
2022/05/17 05:22:56;;;;;;;10.23;3.80;;;;;;;12.33;96.68;100575.38;6227643;23;20003;-74
2022/05/17 05:25:41;;;;;;;;;;;;;;;;;;;;;
2022/05/17 05:28:17;;;;;;;10.48;4.20;;;;;;;12.56;95.20;100582.25;6254329;23;20027;-73
2022/05/17 05:30:45;;;;;;;6.97;4.30;;;;;;;12.55;94.45;100584.13;6227815;23;20019;-73
2022/05/17 05:33:11;;;;;;;9.60;4.68;;;;;;;12.69;94.90;100595.38;6227744;23;20005;-74
2022/05/17 05:35:47;;;;;;;;;;;;;;;;;;;;;
2022/05/17 05:38:13;;;;;;;8.45;3.95;;;;;;;12.50;93.91;100564.13;6252835;23;20032;-74
2022/05/17 05:40:41;;;;;;;8.85;4.50;;;;;;;12.60;94.37;100586.09;6255822;23;20499;-73
2022/05/17 05:43:07;;;;;;;7.65;4.20;;;;;;;12.66;94.07;100606.06;6250782;23;19992;-77
2022/05/17 05:45:32;;;;;;;9.35;5.00;;;;;;;12.64;94.51;100609.09;6227914;23;20011;-76
2022/05/17 05:47:59;;;;;;;14.43;6.22;;;;;;;12.62;94.43;100626.97;6202618;23;20019;-77
2022/05/17 05:50:24;;;;;;;10.13;4.82;;;;;;;12.51;95.07;100617.88;6203297;23;20019;-77
2022/05/17 05:53:20;;;;;;;14.30;5.72;;;;;;;12.45;95.38;100613.50;6228732;23;20058;-76
2022/05/17 05:56:11;;;;;;;13.48;6.00;;;;;;;12.39;95.27;100602.53;6175336;23;20017;-76
2022/05/17 05:58:39;;;;;;;6.97;4.50;;;;;;;12.52;95.43;100612.13;6173048;23;20024;-74
2022/05/17 06:01:06;;;;;;;10.65;5.10;;;;;;;12.66;95.13;100615.16;6220451;23;20478;-73
2022/05/17 06:03:33;;;;;;;8.93;5.03;;;;;;;12.80;94.76;100622.81;6194429;23;20015;-74
2022/05/17 06:05:59;;;;;;;9.07;4.68;;;;;;;12.89;94.73;100618.41;6171223;23;20035;-74
2022/05/17 06:08:31;;;;;;;9.50;4.25;;;;;;;12.85;94.48;100603.59;6168508;23;20056;-76
2022/05/17 06:10:58;;;;;;;8.70;3.70;;;;;;;12.95;94.19;100598.06;6172055;23;20482;-73
2022/05/17 06:13:33;;;;;;;4.85;3.10;;;;;;;13.20;93.72;100615.59;6223185;23;20079;-74
2022/05/17 06:16:16;;;;;;;;;;;;;;;;;;;;;
2022/05/17 06:18:51;;;;;;;5.32;3.55;;;;;;;13.53;92.88;100616.88;6223447;23;20023;-72
2022/05/17 06:21:17;;;;;;;8.25;4.50;;;;;;;13.56;92.17;100588.03;6221892;23;20004;-74
2022/05/17 06:23:45;;;;;;;7.72;5.10;;;;;;;13.67;90.93;100586.88;6193960;23;20103;-73
2022/05/17 06:26:11;;;;;;;13.25;6.05;;;;;;;14.24;90.10;100619.53;6196420;23;20028;-73
2022/05/17 06:28:36;;;;;;;7.78;4.90;;;;;;;14.11;89.14;100591.56;6196991;23;20027;-74
2022/05/17 06:31:02;;;;;;;15.40;6.20;;;;;;;14.28;88.81;100593.06;6222222;23;20635;-73
2022/05/17 06:33:30;;;;;;;9.23;5.65;;;;;;;14.34;87.91;100602.94;6222164;23;20411;-74
2022/05/17 06:35:56;;;;;;;9.25;4.70;;;;;;;14.29;88.38;100586.47;6196106;23;20466;-74
2022/05/17 06:38:26;;;;;;;10.10;5.10;;;;;;;14.33;88.25;100593.06;6194620;23;20012;-76
2022/05/17 06:40:52;;;;;;;8.23;5.00;;;;;;;14.40;88.08;100598.22;6196446;23;20380;-73
2022/05/17 06:43:18;;;;;;;5.82;4.32;;;;;;;14.42;88.23;100605.06;6220676;23;20012;-75
2022/05/17 06:45:43;;;;;;;6.75;4.82;;;;;;;14.44;88.03;100605.63;6172965;23;20012;-74
2022/05/17 06:48:09;;;;;;;13.75;5.90;;;;;;;14.32;87.96;100580.41;6198405;23;20004;-74
2022/05/17 06:50:37;;;;;;;15.07;6.25;;;;;;;14.62;86.47;100611.56;6197087;23;20017;-76
2022/05/17 06:53:05;;;;;;;11.90;5.50;;;;;;;14.95;86.73;100620.03;6197891;23;20006;-75
2022/05/17 06:55:31;;;;;;;8.70;5.28;;;;;;;15.08;85.17;100608.34;6146455;23;20032;-75
2022/05/17 06:57:56;;;;;;;8.88;5.50;;;;;;;15.01;84.66;100618.91;6173379;23;20009;-75
2022/05/17 07:00:22;;;;;;;5.90;3.95;;;;;;;14.95;84.99;100598.03;6198370;23;20004;-74
2022/05/17 07:02:48;;;;;;;8.38;4.90;;;;;;;15.01;85.04;100596.88;6225176;23;20015;-74
2022/05/17 07:05:13;;;;;;;7.65;4.50;;;;;;;15.00;84.68;100611.75;6173737;23;20019;-75
2022/05/17 07:07:39;;;;;;;12.25;4.15;;;;;;;14.91;84.86;100602.47;6173719;23;20008;-75
2022/05/17 07:13:09;;;;;;;8.15;4.35;;;;;;;14.98;85.29;100619.47;6227026;23;20011;-75
2022/05/17 07:15:37;;;;;;;5.97;4.03;;;;;;;15.04;85.32;100618.31;6214680;23;20004;-75
2022/05/17 07:18:04;;;;;;;6.45;3.90;;;;;;;15.19;84.72;100631.91;6211868;23;20292;-75
2022/05/17 07:20:30;;;;;;;9.35;3.90;;;;;;;15.24;83.97;100617.25;6159827;23;20027;-75
2022/05/17 07:22:55;;;;;;;11.88;4.05;;;;;;;15.42;83.88;100623.97;6163350;23;20004;-74
2022/05/17 07:25:21;;;;;;;9.07;3.28;;;;;;;15.68;83.31;100635.50;6162236;23;20009;-75
2022/05/17 07:27:47;;;;;;;7.35;4.10;;;;;;;15.85;82.32;100643.28;6188191;23;20012;-74
2022/05/17 07:30:13;;;;;;;7.57;3.97;;;;;;;16.02;81.31;100631.75;6186976;23;20005;-75
2022/05/17 07:32:39;;;;;;;8.65;4.25;;;;;;;16.31;80.04;100632.69;6160720;23;20013;-74
2022/05/17 07:35:06;;;;;;;14.57;3.85;;;;;;;16.52;78.97;100628.50;6161191;23;20339;-74
2022/05/17 07:37:33;;;;;;;8.05;3.40;;;;;;;16.76;77.38;100638.59;6159009;23;20055;-75
2022/05/17 07:39:59;;;;;;;11.57;3.10;;;;;;;16.96;76.39;100642.16;6183527;23;20012;-75
2022/05/17 07:42:24;;;;;;;5.70;2.90;;;;;;;17.27;75.37;100654.28;6157562;23;20012;-75
2022/05/17 07:44:50;;;;;;;4.80;2.88;;;;;;;17.54;73.65;100655.41;6184105;23;20011;-76
2022/05/17 07:47:15;;;;;;;7.30;2.55;;;;;;;17.77;72.50;100655.50;6136867;23;20084;-76
2022/05/17 07:49:42;;;;;;;12.77;3.42;;;;;;;18.08;71.46;100649.34;6169824;23;20032;-74
2022/05/17 07:52:09;;;;;;;4.20;2.13;;;;;;;18.36;71.00;100649.25;6224586;23;20004;-74
2022/05/17 07:54:37;;;;;;;5.32;2.28;;;;;;;18.82;69.52;100656.41;6187639;23;20021;-73
2022/05/17 07:57:04;;;;;;;4.40;1.95;;;;;;;18.86;69.63;100651.91;6171490;23;20043;-77
2022/05/17 07:59:29;;;;;;;3.83;2.17;;;;;;;18.67;70.06;100655.69;6172642;23;20008;-77
2022/05/17 08:01:55;;;;;;;5.40;2.33;;;;;;;18.67;70.23;100665.94;6174621;23;20416;-75
2022/05/17 08:04:31;;;;;;;9.13;1.88;;;;;;;18.67;69.84;100661.25;6171257;23;20028;-76
2022/05/17 08:06:57;;;;;;;3.30;1.95;;;;;;;18.69;69.71;100660.94;6170631;23;20023;-72
2022/05/17 08:09:26;;;;;;;3.17;1.58;;;;;;;18.80;70.33;100642.88;6223388;23;20326;-74
2022/05/17 08:11:51;;;;;;;2.78;1.80;;;;;;;18.86;68.93;100645.53;6196053;23;20032;-72
2022/05/17 08:14:17;;;;;;;5.78;2.22;;;;;;;18.80;68.47;100659.50;6196162;23;20000;-73
2022/05/17 08:16:43;;;;;;;4.07;1.70;;;;;;;18.61;69.14;100645.84;6195794;23;20040;-73
2022/05/17 08:19:09;;;;;;;7.45;1.75;;;;;;;18.75;68.59;100651.34;6222402;23;20087;-73
2022/05/17 08:21:35;;;;;;;3.08;1.33;;;;;;;19.00;68.93;100655.44;6193726;23;20007;-73
2022/05/17 08:24:02;;;;;;;8.30;2.20;;;;;;;18.96;65.99;100648.06;6196476;23;20087;-76
2022/05/17 08:29:14;;;;;;;3.50;1.85;;;;;;;18.79;65.67;100629.34;6179812;23;20023;-75
2022/05/17 08:31:40;;;;;;;3.15;1.67;;;;;;;18.77;66.67;100637.19;6197010;23;20336;-75
2022/05/17 08:34:35;;;;;;;;;;;;;;;;;;;;;
2022/05/17 08:37:03;;;;;;;5.03;1.40;;;;;;;18.88;65.24;100619.19;6221778;23;20088;-76
2022/05/17 08:39:30;;;;;;;4.28;1.30;;;;;;;18.93;62.29;100641.22;6195796;23;20415;-75
2022/05/17 08:42:02;;;;;;;5.00;1.60;;;;;;;18.91;62.08;100626.88;6195907;23;19997;-75
2022/05/17 08:44:44;;;;;;;5.50;1.27;;;;;;;19.18;62.27;100631.38;6194509;23;20008;-76
2022/05/17 08:47:23;;;;;;;2.72;1.05;;;;;;;19.36;61.50;100642.53;6222775;23;20343;-75
2022/05/17 08:49:58;;;;;;;6.70;1.10;;;;;;;19.51;61.17;100633.00;6194647;23;20007;-76
2022/05/17 08:52:27;;;;;;;3.78;1.20;;;;;;;19.70;60.55;100638.28;6196547;23;20100;-75
2022/05/17 08:55:21;;;;;;;7.15;1.25;;;;;;;19.55;59.08;100633.97;6191376;23;20020;-74
2022/05/17 08:58:01;;;;;;;4.50;1.10;;;;;;;19.56;58.69;100652.25;6193563;23;20004;-74
2022/05/17 09:00:44;;;;;;;4.95;1.10;;;;;;;19.46;57.01;100631.16;6221510;23;19985;-74
2022/05/17 09:03:25;;;;;;;6.80;1.30;;;;;;;19.48;58.76;100620.59;6218135;23;20092;-75
2022/05/17 09:06:20;;;;;;;6.32;1.23;;;;;;;19.75;54.89;100627.00;6199992;23;20008;-75
2022/05/17 09:08:57;;;;;;;2.75;0.90;;;;;;;19.90;54.64;100631.31;6182413;23;20008;-77
2022/05/17 09:11:41;;;;;;;5.57;1.77;;;;;;;20.38;52.92;100638.69;6198899;23;20454;-76
2022/05/17 09:14:17;;;;;;;7.43;1.87;;;;;;;20.86;51.06;100627.69;6226456;23;20023;-75
2022/05/17 09:17:06;;;;;;;6.00;1.30;;;;;;;21.26;50.57;100617.09;6195496;23;20065;-75
2022/05/17 09:19:32;;;;;;;3.58;1.13;;;;;;;21.62;49.70;100620.53;6198067;23;20020;-75
2022/05/17 09:22:00;;;;;;;5.22;1.05;;;;;;;21.73;49.14;100619.00;6221969;23;20005;-73
2022/05/17 09:24:35;;;;;;;5.22;1.23;;;;;;;21.88;47.85;100631.50;6223061;23;20004;-76
2022/05/17 09:27:08;;;;;;;16.42;2.08;;;;;;;21.44;47.29;100620.59;6196070;23;20088;-74
2022/05/17 09:29:45;;;;;;;6.38;1.25;;;;;;;20.93;48.52;100614.13;6198193;23;20047;-76
2022/05/17 09:32:29;;;;;;;3.08;0.88;;;;;;;20.74;49.82;100615.31;6196046;23;20004;-75
2022/05/17 09:35:20;;;;;;;9.02;1.42;;;;;;;20.98;49.41;100622.25;6194811;23;20092;-75
2022/05/17 09:37:51;;;;;;;3.25;1.00;;;;;;;21.70;48.48;100630.81;6221403;23;20004;-75
2022/05/17 09:40:23;;;;;;;5.90;1.52;;;;;;;22.65;47.17;100624.84;6220000;23;20020;-75
2022/05/17 09:42:58;;;;;;;2.58;0.77;;;;;;;23.89;44.23;100620.25;6193696;23;19992;-74
2022/05/17 09:45:38;;;;;;;10.25;1.83;;;;;;;24.86;40.98;100625.81;6221454;23;20059;-75
2022/05/17 09:48:07;;;;;;;4.50;1.20;;;;;;;25.35;40.28;100615.47;6222178;23;20061;-74
2022/05/17 09:53:39;;;;;;;4.60;1.08;;;;;;;26.73;38.29;100600.47;6223438;22;20558;-74
2022/05/17 09:56:06;;;;;;;3.53;1.35;;;;;;;28.28;36.76;100603.69;6252002;23;20087;-74
2022/05/17 09:58:38;;;;;;;6.00;1.23;;;;;;;29.50;34.44;100606.94;6224102;23;20035;-74
2022/05/17 10:01:39;;;;;;;3.53;1.45;;;;;;;28.72;32.87;100600.22;6251642;23;20004;-74
2022/05/17 10:04:09;;;;;;;5.75;1.20;;;;;;;29.28;32.31;100603.16;6224019;23;20015;-75
2022/05/17 10:06:39;;;;;;;6.72;1.48;;;;;;;30.14;31.66;100587.97;6225880;23;20004;-75
2022/05/17 10:09:12;;;;;;;6.70;1.50;;;;;;;30.66;29.28;100585.75;6250939;23;20342;-74
2022/05/17 10:11:49;;;;;;;5.18;0.88;;;;;;;30.51;30.45;100581.28;6225412;23;20127;-73
2022/05/17 10:14:40;;;;;;;3.67;1.10;;;;;;;30.84;30.11;100584.97;6225158;23;20012;-73
2022/05/17 10:17:20;;;;;;;4.45;1.15;;;;;;;31.29;29.73;100579.75;6227175;23;20326;-73
2022/05/17 10:20:00;;;;;;;6.15;1.73;;;;;;;31.96;28.14;100568.72;6252379;23;20000;-72
2022/05/17 10:22:57;;;;;;;8.55;1.30;;;;;;;31.97;28.32;100576.00;6227046;23;20004;-73
2022/05/17 10:25:35;;;;;;;5.85;1.20;;;;;;;33.20;26.96;100559.06;6253756;23;20007;-73
2022/05/17 10:28:09;;;;;;;6.55;1.35;;;;;;;35.04;23.25;100568.13;6225872;23;20015;-73
2022/05/17 10:30:40;;;;;;;;;;;;;;;35.38;23.88;100570.81;6228094;23;20013;-73
2022/05/17 10:33:14;;;;;;;4.78;1.40;;;;;;;35.38;23.01;100567.97;6226368;23;19903;-74
2022/05/17 10:35:49;;;;;;;4.75;1.15;;;;;;;33.72;25.27;100555.31;6225295;23;19988;-74
2022/05/17 10:38:21;;;;;;;4.28;1.33;;;;;;;33.97;25.88;100551.41;6225997;23;20007;-73
2022/05/17 10:40:50;;;;;;;2.45;1.08;;;;;;;34.68;25.55;100545.94;6224645;23;20000;-72
2022/05/17 10:43:28;;;;;;;3.38;1.35;;;;;;;35.37;23.96;100551.31;6251024;23;20022;-75
2022/05/17 10:46:10;;;;;;;6.43;1.50;;;;;;;36.69;22.07;100547.72;6253353;23;20004;-73
2022/05/17 10:48:54;;;;;;;6.50;1.17;;;;;;;37.97;21.41;100535.38;6223651;23;20008;-73
2022/05/17 10:51:38;;;;;;;2.50;0.95;;;;;;;38.92;20.60;100534.06;6252646;23;20046;-75
2022/05/17 10:54:25;;;;;;;3.25;1.13;;;;;;;38.16;21.36;100533.59;6224822;23;20119;-74
2022/05/17 10:57:10;;;;;;;3.63;1.17;;;;;;;38.79;20.56;100528.34;6253341;23;20008;-74
2022/05/17 11:00:03;;;;;;;5.68;1.05;;;;;;;38.48;19.96;100528.94;6226285;23;20008;-75
2022/05/17 11:02:46;;;;;;;5.03;1.40;;;;;;;37.38;20.42;100518.31;6251753;23;20427;-74
2022/05/17 11:05:49;;;;;;;3.42;1.00;;;;;;;35.12;22.13;100509.94;6252145;23;20003;-73
2022/05/17 11:08:34;;;;;;;2.45;0.95;;;;;;;33.57;25.12;100498.78;6225620;23;20004;-74
2022/05/17 11:11:25;;;;;;;2.15;1.02;;;;;;;33.20;25.41;100499.56;6225255;23;20011;-74
2022/05/17 11:13:57;;;;;;;5.13;1.20;;;;;;;33.74;25.46;100482.00;6226653;23;20015;-73
2022/05/17 11:16:28;;;;;;;5.55;1.20;;;;;;;34.58;24.19;100494.59;6250677;23;20083;-75
2022/05/17 11:19:08;;;;;;;5.22;1.27;;;;;;;34.67;24.33;100496.06;6253902;23;20078;-75
2022/05/17 11:21:50;;;;;;;2.33;0.77;;;;;;;34.92;24.36;100487.97;6225710;23;20000;-75
2022/05/17 11:24:52;;;;;;;2.60;1.00;;;;;;;37.22;22.21;100492.66;6224609;23;20003;-75
2022/05/17 11:27:53;;;;;;;2.63;0.88;;;;;;;38.59;19.83;100494.31;6202371;23;20014;-73
2022/05/17 11:30:34;;;;;;;3.30;1.20;;;;;;;37.25;18.88;100486.06;6077153;23;20010;-73
2022/05/17 11:33:34;;;;;;;4.55;1.05;;;;;;;34.37;21.92;100469.38;6239887;23;20486;-76
2022/05/17 11:36:02;;;;;;;4.18;1.15;;;;;;;33.02;24.28;100482.75;6193124;23;20026;-75
2022/05/17 11:38:31;;;;;;;3.85;1.10;;;;;;;31.96;26.60;100475.41;6230348;23;20086;-75
2022/05/17 11:40:58;;;;;;;4.93;1.58;;;;;;;31.08;27.05;100476.09;6226101;23;20004;-76
2022/05/17 11:43:54;;;;;;;5.78;0.93;;;;;;;30.92;27.18;100480.13;6255646;23;20082;-75
2022/05/17 11:46:29;;;;;;;6.90;1.42;;;;;;;33.11;25.02;100477.41;6227724;23;20000;-75
2022/05/17 11:49:18;;;;;;;6.03;1.55;;;;;;;34.79;22.23;100486.97;6227973;23;20015;-74
2022/05/17 11:51:59;;;;;;;3.03;1.00;;;;;;;36.23;21.44;100472.75;6250634;23;20079;-75
2022/05/17 11:54:45;;;;;;;3.78;1.00;;;;;;;38.84;19.53;100484.13;6222712;22;20022;-74
2022/05/17 11:57:17;;;;;;;4.22;1.27;;;;;;;38.94;17.53;100474.34;6248731;23;20034;-78
2022/05/17 11:59:56;;;;;;;6.38;1.15;;;;;;;39.04;18.30;100478.91;6226848;23;20000;-75
2022/05/17 12:02:46;;;;;;;3.78;0.95;;;;;;;40.34;17.17;100482.63;6254376;23;20000;-82
2022/05/17 12:05:36;;;;;;;6.40;1.30;;;;;;;42.58;15.75;100473.31;6225936;23;20004;-78